Time;durP1;ratioP1;P1;durP2;ratioP2;P2;SDS_P1;SDS_P2;PMS_P1;PMS_P2;Temp;Humidity;BMP_temperature;BMP_pressure;BME280_temperature;BME280_humidity;BME280_pressure;Samples;Min_cycle;Max_cycle;Signal;HPM_P1;HPM_P2
2021/04/19 00:01:08;;;;;;;20.57;12.30;;;7.00;99.90;;;7.88;100.00;98381.81;5045149;28;20832;-80
2021/04/19 00:03:35;;;;;;;25.83;13.50;;;7.00;99.90;;;7.80;100.00;98379.22;5050667;28;20457;-80
2021/04/19 00:06:04;;;;;;;21.67;13.37;;;6.90;99.90;;;7.72;100.00;98375.78;5053986;28;20484;-80
2021/04/19 00:08:31;;;;;;;25.40;14.73;;;6.90;99.90;;;7.65;100.00;98374.78;5054375;28;20549;-80
2021/04/19 00:11:00;;;;;;;21.80;13.10;;;6.70;99.90;;;7.63;100.00;98369.75;5051093;28;20473;-80
2021/04/19 00:13:29;;;;;;;22.50;11.90;;;6.70;99.90;;;7.68;100.00;98370.06;5053506;28;20538;-80
2021/04/19 00:15:56;;;;;;;22.80;14.00;;;6.80;99.90;;;7.70;100.00;98370.75;5061173;28;20444;-79
2021/04/19 00:18:24;;;;;;;18.70;12.00;;;6.80;99.90;;;7.71;100.00;98374.94;5047990;28;20457;-80
2021/04/19 00:20:52;;;;;;;19.73;12.13;;;6.80;99.90;;;7.73;100.00;98377.41;5057322;28;20491;-80
2021/04/19 00:23:19;;;;;;;22.43;12.57;;;6.80;99.90;;;7.66;100.00;98371.22;5045137;28;20959;-80
2021/04/19 00:25:47;;;;;;;19.37;12.80;;;6.70;99.90;;;7.72;100.00;98370.56;5052869;28;20471;-80
2021/04/19 00:28:15;;;;;;;22.93;11.83;;;6.80;99.90;;;7.68;100.00;98374.47;5053725;28;20464;-80
2021/04/19 00:30:43;;;;;;;22.77;11.63;;;6.80;99.90;;;7.70;100.00;98377.72;5052873;28;20461;-80
2021/04/19 00:33:10;;;;;;;19.27;12.63;;;6.80;99.90;;;7.74;100.00;98371.25;5044883;28;20458;-80
2021/04/19 00:35:38;;;;;;;22.90;12.07;;;6.80;99.90;;;7.76;100.00;98371.88;5054675;28;20465;-80
2021/04/19 00:38:06;;;;;;;22.23;12.83;;;6.90;99.90;;;7.75;100.00;98365.84;5053731;28;20509;-80
2021/04/19 00:40:37;;;;;;;22.40;13.20;;;6.90;99.90;;;7.69;100.00;98370.88;5047190;28;20787;-80
2021/04/19 00:43:05;;;;;;;20.90;12.70;;;6.80;99.90;;;7.68;100.00;98361.44;5050909;28;21090;-80
2021/04/19 00:45:35;;;;;;;16.97;10.87;;;6.80;99.90;;;7.73;100.00;98372.19;5050736;28;20449;-80
2021/04/19 00:48:04;;;;;;;19.83;12.70;;;6.80;99.90;;;7.67;100.00;98362.44;5047916;28;20466;-80
2021/04/19 00:50:35;;;;;;;20.70;12.87;;;6.70;99.90;;;7.71;100.00;98363.72;5053137;28;20457;-79
2021/04/19 00:53:05;;;;;;;22.03;12.80;;;6.80;99.90;;;7.69;100.00;98370.88;5048062;28;20503;-83
2021/04/19 00:55:33;;;;;;;23.17;13.00;;;6.80;99.90;;;7.61;100.00;98363.88;5056353;28;20520;-79
2021/04/19 00:58:01;;;;;;;22.07;12.37;;;6.70;99.90;;;7.51;100.00;98364.03;5053576;28;20460;-80
2021/04/19 01:00:34;;;;;;;19.07;12.53;;;6.60;99.90;;;7.53;100.00;98364.69;5053902;28;20448;-79
2021/04/19 01:03:03;;;;;;;20.83;12.80;;;6.60;99.90;;;7.50;100.00;98362.41;5051134;28;20555;-80
2021/04/19 01:05:36;;;;;;;21.70;11.90;;;6.50;99.90;;;7.43;100.00;98365.78;5051235;28;20449;-80
2021/04/19 01:08:05;;;;;;;21.47;12.87;;;6.50;99.90;;;7.43;100.00;98352.78;5051808;28;20461;-80
2021/04/19 01:10:32;;;;;;;19.70;12.57;;;6.50;99.90;;;7.45;100.00;98349.06;5053147;28;21002;-80
2021/04/19 01:13:00;;;;;;;24.13;12.57;;;6.50;99.90;;;7.50;100.00;98357.19;5050881;28;20457;-79
2021/04/19 01:15:28;;;;;;;20.53;13.40;;;6.70;99.90;;;7.49;100.00;98355.59;5043362;28;20464;-80
2021/04/19 01:17:56;;;;;;;22.60;13.20;;;6.50;99.90;;;7.48;100.00;98350.53;5049906;28;20881;-80
2021/04/19 01:20:27;;;;;;;26.40;12.77;;;6.60;99.90;;;7.47;100.00;98357.50;5048589;28;20528;-80
2021/04/19 01:23:00;;;;;;;23.47;14.03;;;6.50;99.90;;;7.50;100.00;98357.19;5051771;28;20996;-80
2021/04/19 01:25:30;;;;;;;23.53;13.20;;;6.50;99.90;;;7.42;100.00;98367.59;5046838;28;20488;-80
2021/04/19 01:27:59;;;;;;;22.50;13.10;;;6.60;99.90;;;7.38;100.00;98358.47;5055855;28;20460;-80
2021/04/19 01:30:33;;;;;;;23.67;14.40;;;6.50;99.90;;;7.35;100.00;98358.81;5052885;28;20459;-79
2021/04/19 01:33:01;;;;;;;22.77;12.53;;;6.40;99.90;;;7.41;100.00;98358.16;5056489;28;20953;-80
2021/04/19 01:35:29;;;;;;;22.83;14.37;;;6.50;99.90;;;7.46;100.00;98355.88;5059585;28;20464;-80
2021/04/19 01:37:58;;;;;;;20.77;13.33;;;6.50;99.90;;;7.50;100.00;98352.00;5050780;28;20465;-80
2021/04/19 01:40:27;;;;;;;20.43;12.40;;;6.60;99.90;;;7.53;100.00;98351.66;5054752;28;20510;-80
2021/04/19 01:42:55;;;;;;;19.90;12.60;;;6.60;99.90;;;7.55;100.00;98352.34;5047221;28;20508;-80
2021/04/19 01:45:23;;;;;;;22.23;13.33;;;6.60;99.90;;;7.52;100.00;98354.44;5054883;28;20465;-80
2021/04/19 01:47:51;;;;;;;22.53;13.77;;;6.60;99.90;;;7.52;100.00;98350.06;5051715;28;20465;-80
2021/04/19 01:50:23;;;;;;;27.17;14.40;;;6.60;99.90;;;7.50;100.00;98352.00;5048227;28;20461;-80
2021/04/19 01:52:52;;;;;;;20.13;13.23;;;6.50;99.90;;;7.48;100.00;98351.34;5039961;28;20476;-80
2021/04/19 01:55:22;;;;;;;24.77;13.60;;;6.60;99.90;;;7.48;100.00;98350.53;5053998;28;20465;-80
2021/04/19 01:57:54;;;;;;;22.83;13.33;;;6.50;99.90;;;7.55;100.00;98352.34;5052450;28;20878;-79
2021/04/19 02:00:25;;;;;;;21.67;14.07;;;6.70;99.90;;;7.59;100.00;98345.03;5055145;28;20463;-80
2021/04/19 02:03:07;;;;;;;20.80;13.37;;;6.70;99.90;;;7.53;100.00;98336.06;5053857;28;20500;-80
2021/04/19 02:05:53;;;;;;;21.87;13.33;;;6.60;99.90;;;7.53;100.00;98345.66;5051950;28;20544;-80
2021/04/19 02:08:31;;;;;;;20.93;14.00;;;6.60;99.90;;;7.55;100.00;98339.31;5051353;28;20476;-80
2021/04/19 02:11:19;;;;;;;32.40;13.13;;;6.70;99.90;;;7.60;100.00;98341.47;5049810;28;20767;-80
2021/04/19 02:13:58;;;;;;;21.03;13.27;;;6.70;99.90;;;7.63;100.00;98338.53;5049934;28;20461;-80
2021/04/19 02:16:38;;;;;;;23.80;12.60;;;6.70;99.90;;;7.51;100.00;98337.19;5048891;28;20825;-80
2021/04/19 02:19:18;;;;;;;27.77;12.80;;;6.60;99.90;;;7.48;100.00;98338.34;5053328;28;20526;-80
2021/04/19 02:21:51;;;;;;;21.03;12.93;;;6.60;99.90;;;7.45;100.00;98333.47;5054296;28;20541;-80
2021/04/19 02:24:24;;;;;;;25.30;13.40;;;6.50;99.90;;;7.49;100.00;98329.56;5055732;28;20987;-80
2021/04/19 02:26:57;;;;;;;22.90;13.13;;;6.60;99.90;;;7.54;100.00;98332.47;5053321;28;20522;-80
2021/04/19 02:29:35;;;;;;;20.17;12.37;;;6.60;99.90;;;7.51;100.00;98330.22;5052555;28;20540;-80
2021/04/19 02:32:09;;;;;;;29.10;13.03;;;6.60;99.90;;;7.41;100.00;98326.94;5048794;28;21055;-80
2021/04/19 02:34:37;;;;;;;25.27;13.63;;;6.50;99.90;;;7.35;100.00;98322.38;5048684;28;20496;-80
2021/04/19 02:37:08;;;;;;;22.00;12.97;;;6.40;99.90;;;7.36;100.00;98329.19;5054135;28;20464;-80
2021/04/19 02:39:42;;;;;;;26.07;15.50;;;6.50;99.90;;;7.47;100.00;98328.91;5051168;28;20475;-80
2021/04/19 02:42:11;;;;;;;22.63;13.83;;;6.60;99.90;;;7.44;100.00;98320.59;5045143;28;20497;-80
2021/04/19 02:44:45;;;;;;;22.13;13.57;;;6.50;99.90;;;7.42;100.00;98328.56;5050660;28;20468;-79
2021/04/19 02:47:15;;;;;;;24.27;13.23;;;6.50;99.90;;;7.39;100.00;98321.06;5048314;28;20469;-79
2021/04/19 02:49:44;;;;;;;21.50;13.43;;;6.60;99.90;;;7.43;100.00;98321.56;5048859;28;20554;-80
2021/04/19 02:52:13;;;;;;;20.67;13.17;;;6.70;99.90;;;7.40;100.00;98314.09;5053361;28;21026;-81
2021/04/19 02:54:44;;;;;;;23.10;14.60;;;6.50;99.90;;;7.42;100.00;98312.97;5053024;28;20452;-79
2021/04/19 02:57:27;;;;;;;24.60;14.47;;;6.60;99.90;;;7.45;100.00;98317.03;5054815;28;20468;-80
2021/04/19 02:59:58;;;;;;;22.63;12.83;;;6.70;99.90;;;7.50;100.00;98309.53;5051483;28;20975;-80
2021/04/19 03:02:29;;;;;;;22.60;13.43;;;6.60;99.90;;;7.49;100.00;98313.13;5048213;28;20505;-80
2021/04/19 03:05:00;;;;;;;25.80;13.50;;;6.60;99.90;;;7.53;100.00;98315.22;5060046;28;20463;-79
2021/04/19 03:07:35;;;;;;;22.33;12.33;;;6.60;99.90;;;7.53;100.00;98317.84;5054261;28;20464;-80
2021/04/19 03:10:11;;;;;;;23.53;14.03;;;6.70;99.90;;;7.55;100.00;98307.28;5061062;28;20529;-79
2021/04/19 03:12:48;;;;;;;20.03;12.40;;;6.70;99.90;;;7.56;100.00;98316.72;5060865;28;20525;-80
2021/04/19 03:15:22;;;;;;;22.23;13.20;;;6.60;99.90;;;7.54;100.00;98316.88;5062082;28;20451;-80
2021/04/19 03:17:52;;;;;;;23.53;13.03;;;6.60;99.90;;;7.52;100.00;98316.22;5058941;28;20871;-80
2021/04/19 03:20:26;;;;;;;22.63;14.00;;;6.60;99.90;;;7.50;100.00;98320.75;5062854;28;20455;-80
2021/04/19 03:22:55;;;;;;;19.20;12.27;;;6.60;99.90;;;7.53;100.00;98323.03;5063543;28;20609;-80
2021/04/19 03:25:28;;;;;;;22.63;13.40;;;6.70;99.90;;;7.50;100.00;98318.16;5059693;28;20472;-80
2021/04/19 03:27:59;;;;;;;22.83;13.50;;;6.60;99.90;;;7.45;100.00;98317.03;5060681;28;20464;-80
2021/04/19 03:30:28;;;;;;;22.47;13.03;;;6.50;99.90;;;7.45;100.00;98310.03;5061519;28;20492;-80
2021/04/19 03:32:58;;;;;;;24.53;12.40;;;6.50;99.90;;;7.50;100.00;98315.56;5055416;28;20440;-80
2021/04/19 03:35:33;;;;;;;21.50;13.53;;;6.60;99.90;;;7.52;100.00;98313.63;5059784;28;20460;-80
2021/04/19 03:38:03;;;;;;;19.27;12.67;;;6.60;99.90;;;7.55;100.00;98313.31;5059756;28;20464;-80
2021/04/19 03:40:33;;;;;;;23.40;13.67;;;6.60;99.90;;;7.55;100.00;98318.50;5048355;28;20465;-80
2021/04/19 03:43:06;;;;;;;24.87;13.60;;;6.70;99.90;;;7.58;100.00;98317.38;5051414;28;20860;-79
2021/04/19 03:45:39;;;;;;;23.70;13.70;;;6.70;99.90;;;7.58;100.00;98317.38;5052550;28;20461;-86
2021/04/19 03:48:13;;;;;;;20.67;14.57;;;6.70;99.90;;;7.56;100.00;98317.53;5051292;28;20854;-80
2021/04/19 03:50:48;;;;;;;16.70;11.30;;;6.70;99.90;;;7.57;100.00;98311.34;5040134;28;20522;-80
2021/04/19 03:53:19;;;;;;;23.37;13.00;;;6.80;99.90;;;7.59;100.00;98319.00;5053608;28;20472;-80
2021/04/19 03:55:49;;;;;;;18.00;12.20;;;6.70;99.90;;;7.57;100.00;98310.53;5060012;28;20530;-88
2021/04/19 03:58:19;;;;;;;21.63;12.10;;;6.70;99.90;;;7.55;100.00;98308.09;5054448;28;20457;-80
2021/04/19 04:00:50;;;;;;;22.30;12.97;;;6.60;99.90;;;7.53;100.00;98310.03;5047689;28;20863;-80
2021/04/19 04:03:20;;;;;;;28.33;14.07;;;6.60;99.90;;;7.51;100.00;98303.38;5048160;28;20497;-80
2021/04/19 04:05:50;;;;;;;23.47;13.90;;;6.60;99.90;;;7.44;100.00;98305.81;5049827;28;20485;-80
2021/04/19 04:08:19;;;;;;;18.07;11.80;;;6.60;99.90;;;7.46;100.00;98309.03;5057954;28;20495;-80
2021/04/19 04:10:48;;;;;;;20.87;13.30;;;6.60;99.90;;;7.46;100.00;98310.84;5050432;28;20457;-80
2021/04/19 04:13:16;;;;;;;24.53;12.67;;;6.60;99.90;;;7.39;100.00;98300.25;5047837;28;20461;-80
2021/04/19 04:15:57;;;;;;;21.30;13.03;;;6.60;99.90;;;7.41;100.00;98298.31;5051532;28;20460;-79
2021/04/19 04:18:25;;;;;;;19.60;12.37;;;6.50;99.90;;;7.42;100.00;98299.16;5050457;28;20527;-80
2021/04/19 04:20:54;;;;;;;20.60;12.37;;;6.50;99.90;;;7.46;100.00;98292.66;5052248;28;20872;-81
2021/04/19 04:23:21;;;;;;;20.43;12.40;;;6.60;99.90;;;7.50;100.00;98294.75;5046051;28;20481;-86
2021/04/19 04:25:50;;;;;;;21.00;13.47;;;6.60;99.90;;;7.52;100.00;98302.41;5055781;28;20475;-79
2021/04/19 04:28:18;;;;;;;17.90;11.87;;;6.60;99.90;;;7.54;100.00;98309.06;5050482;28;20464;-80
2021/04/19 04:30:45;;;;;;;26.37;14.60;;;6.60;99.90;;;7.53;100.00;98304.81;5063577;28;20467;-80
2021/04/19 04:33:14;;;;;;;28.83;14.23;;;6.60;99.90;;;7.52;100.00;98299.81;5053134;28;20433;-80
2021/04/19 04:35:41;;;;;;;17.67;12.63;;;6.70;99.90;;;7.51;100.00;98303.38;5041774;28;20453;-80
2021/04/19 04:38:09;;;;;;;26.43;14.73;;;6.70;99.90;;;7.50;100.00;98305.16;5054541;28;20922;-80
2021/04/19 04:40:36;;;;;;;22.80;13.97;;;6.70;99.90;;;7.50;100.00;98305.16;5049562;28;20933;-80
2021/04/19 04:43:12;;;;;;;20.43;13.80;;;6.60;99.90;;;7.48;100.00;98301.91;5051675;28;20489;-79
2021/04/19 04:45:41;;;;;;;19.07;12.60;;;6.60;99.90;;;7.54;100.00;98306.47;5054961;28;21104;-79
2021/04/19 04:48:20;;;;;;;25.23;13.23;;;6.60;99.90;;;7.56;100.00;98299.31;5050489;28;20456;-83
2021/04/19 04:50:54;;;;;;;21.67;14.20;;;6.70;99.90;;;7.57;100.00;98298.31;5049118;28;20452;-78
2021/04/19 04:53:32;;;;;;;19.40;13.20;;;6.70;99.90;;;7.57;100.00;98303.53;5047714;28;20445;-78
2021/04/19 04:56:02;;;;;;;23.53;14.73;;;6.70;99.90;;;7.56;100.00;98298.50;5052476;28;20453;-78
2021/04/19 04:58:33;;;;;;;21.90;13.17;;;6.60;99.90;;;7.58;100.00;98304.34;5051273;28;20507;-79
2021/04/19 05:01:02;;;;;;;25.13;13.27;;;6.70;99.90;;;7.63;100.00;98304.69;5053463;28;20945;-79
2021/04/19 05:03:41;;;;;;;23.60;13.00;;;6.80;99.90;;;7.64;100.00;98318.50;5048745;28;20493;-78
2021/04/19 05:06:14;;;;;;;25.50;14.40;;;6.80;99.90;;;7.63;100.00;98312.50;5054804;28;20453;-79
2021/04/19 05:08:42;;;;;;;27.93;13.97;;;6.70;99.90;;;7.66;100.00;98313.97;5049842;28;20832;-79
2021/04/19 05:11:11;;;;;;;25.23;13.40;;;6.70;99.90;;;7.66;100.00;98319.97;5054647;28;20444;-79
2021/04/19 05:13:39;;;;;;;26.30;16.53;;;6.70;99.90;;;7.64;100.00;98315.88;5052050;28;20938;-79
2021/04/19 05:16:07;;;;;;;23.63;14.90;;;6.70;99.90;;;7.60;100.00;98321.41;5060596;28;20445;-79
2021/04/19 05:18:36;;;;;;;22.17;13.83;;;6.60;99.90;;;7.63;100.00;98319.50;5056589;28;20448;-79
2021/04/19 05:21:05;;;;;;;29.50;15.53;;;6.60;99.90;;;7.64;100.00;98315.88;5055207;28;20469;-79
2021/04/19 05:23:33;;;;;;;20.10;14.00;;;6.70;99.90;;;7.67;100.00;98315.59;5054428;28;20500;-80
2021/04/19 05:26:02;;;;;;;24.03;15.17;;;6.70;99.90;;;7.70;100.00;98317.88;5058497;28;20445;-79
2021/04/19 05:28:31;;;;;;;24.47;14.80;;;6.80;99.90;;;7.75;100.00;98318.19;5062371;28;20441;-79
2021/04/19 05:30:59;;;;;;;21.00;13.70;;;6.90;99.90;;;7.79;100.00;98314.28;5064178;28;20497;-79
2021/04/19 05:33:26;;;;;;;25.30;15.73;;;6.90;99.90;;;7.81;100.00;98322.75;5061492;28;20481;-79
2021/04/19 05:35:56;;;;;;;23.20;13.33;;;6.90;99.90;;;7.80;100.00;98321.13;5060168;28;20480;-79
2021/04/19 05:38:25;;;;;;;25.63;14.80;;;6.90;99.90;;;7.81;100.00;98328.75;5056022;28;20503;-79
2021/04/19 05:40:54;;;;;;;23.90;13.70;;;7.00;99.90;;;7.78;100.00;98323.88;5056770;28;20496;-79
2021/04/19 05:43:22;;;;;;;20.00;13.57;;;6.90;99.90;;;7.75;100.00;98324.19;5061671;28;20479;-79
2021/04/19 05:45:53;;;;;;;23.63;14.30;;;6.80;99.90;;;7.75;100.00;98328.59;5057438;28;20444;-79
2021/04/19 05:48:22;;;;;;;24.07;14.03;;;6.80;99.90;;;7.79;100.00;98335.94;5050340;28;20967;-79
2021/04/19 05:50:55;;;;;;;26.40;13.63;;;6.90;99.90;;;7.82;100.00;98335.59;5051580;28;20445;-79
2021/04/19 05:53:23;;;;;;;27.40;14.33;;;6.90;99.90;;;7.83;100.00;98332.03;5052561;28;20445;-79
2021/04/19 05:55:55;;;;;;;21.43;14.20;;;6.90;99.90;;;7.86;100.00;98330.88;5051344;28;20458;-79
2021/04/19 05:58:29;;;;;;;25.30;14.37;;;7.00;99.90;;;7.87;100.00;98335.94;5046376;28;20817;-79
2021/04/19 06:01:07;;;;;;;20.77;15.20;;;7.00;99.90;;;7.93;100.00;98337.06;5053925;28;20933;-79
2021/04/19 06:03:43;;;;;;;24.90;15.00;;;7.10;99.90;;;7.94;100.00;98336.09;5051886;28;20530;-79
2021/04/19 06:07:02;;;;;;;23.43;13.60;;;7.10;99.90;;;8.00;100.00;98343.25;5051074;28;20484;-79
2021/04/19 06:09:53;;;;;;;19.20;12.67;;;7.20;99.90;;;8.04;100.00;98344.56;5051986;28;20466;-79
2021/04/19 06:12:30;;;;;;;19.80;13.13;;;7.20;99.90;;;8.08;100.00;98343.25;5050450;28;20808;-79
2021/04/19 06:15:08;;;;;;;24.97;14.10;;;7.20;99.90;;;8.10;100.00;98347.31;5054277;28;20437;-79
2021/04/19 06:17:43;;;;;;;30.97;15.30;;;7.20;99.90;;;8.08;100.00;98341.47;5052594;28;20456;-79
2021/04/19 06:20:18;;;;;;;24.97;14.83;;;7.20;99.90;;;8.13;100.00;98338.34;5052998;28;20456;-79
2021/04/19 06:22:50;;;;;;;20.40;13.60;;;7.30;99.90;;;8.16;100.00;98348.44;5052773;28;20500;-79
2021/04/19 06:25:28;;;;;;;23.03;14.30;;;7.30;99.90;;;8.19;100.00;98345.50;5051218;28;20448;-79
2021/04/19 06:28:04;;;;;;;24.30;15.00;;;7.30;99.90;;;8.24;100.00;98348.44;5052039;28;20500;-79
2021/04/19 06:30:57;;;;;;;22.90;13.40;;;7.40;99.90;;;8.30;100.00;98353.00;5051043;28;20449;-79
2021/04/19 06:34:03;;;;;;;24.53;14.90;;;7.40;99.90;;;8.34;100.00;98346.50;5045376;28;21071;-79
2021/04/19 06:36:33;;;;;;;24.80;15.70;;;7.50;99.90;;;8.39;100.00;98344.22;5050870;28;20566;-79
2021/04/19 06:39:03;;;;;;;25.80;15.03;;;7.60;99.90;;;8.42;100.00;98343.88;5053167;28;20437;-79
2021/04/19 06:41:32;;;;;;;32.47;20.40;;;7.60;99.90;;;8.45;100.00;98353.16;5053893;28;20483;-79
2021/04/19 06:44:01;;;;;;;34.63;23.10;;;7.70;99.90;;;8.49;100.00;98350.06;5057442;28;20503;-79
2021/04/19 06:46:33;;;;;;;34.50;20.07;;;7.70;99.90;;;8.52;100.00;98352.34;5054827;28;20445;-79
2021/04/19 06:49:03;;;;;;;31.23;18.23;;;7.70;99.90;;;8.57;100.00;98357.06;5053245;28;20469;-80
2021/04/19 06:51:33;;;;;;;26.80;15.73;;;7.90;99.90;;;8.59;100.00;98350.69;5053468;28;20441;-79
2021/04/19 06:54:21;;;;;;;21.83;14.20;;;8.00;99.90;;;8.63;100.00;98352.97;5056067;28;20971;-80
2021/04/19 06:57:27;;;;;;;29.30;15.90;;;8.00;99.90;;;8.64;100.00;98352.81;5057099;28;20441;-79
2021/04/19 07:00:15;;;;;;;36.30;20.37;;;8.00;99.90;;;8.65;100.00;98353.59;5045800;28;20497;-79
2021/04/19 07:02:51;;;;;;;29.03;19.70;;;7.90;99.90;;;8.63;100.00;98353.78;5055644;28;20477;-79
2021/04/19 07:05:27;;;;;;;24.03;16.67;;;7.90;99.90;;;8.66;100.00;98361.25;5056099;28;20437;-80
2021/04/19 07:08:12;;;;;;;27.30;17.47;;;7.90;99.90;;;8.67;100.00;98354.25;5056196;28;20433;-79
2021/04/19 07:10:44;;;;;;;32.57;20.40;;;7.90;99.90;;;8.69;100.00;98354.91;5055789;28;21034;-80
2021/04/19 07:13:16;;;;;;;35.40;21.73;;;7.90;99.90;;;8.70;100.00;98352.13;5052853;28;20507;-79
2021/04/19 07:15:47;;;;;;;30.43;20.10;;;7.80;99.90;;;8.74;100.00;98352.63;5048899;28;20945;-79
2021/04/19 07:18:16;;;;;;;38.63;25.13;;;7.90;99.90;;;8.81;100.00;98350.97;5053843;28;20448;-79
2021/04/19 07:20:45;;;;;;;30.83;18.70;;;8.00;99.90;;;8.84;100.00;98343.63;5054760;28;20448;-79
2021/04/19 07:23:15;;;;;;;31.23;17.60;;;8.10;99.90;;;8.87;100.00;98342.47;5054274;28;20496;-79
2021/04/19 07:25:45;;;;;;;30.30;18.80;;;8.20;99.90;;;8.93;100.00;98347.81;5053702;28;20532;-79
2021/04/19 07:28:15;;;;;;;22.50;14.60;;;8.30;99.90;;;8.97;100.00;98337.84;5054903;28;20456;-79
2021/04/19 07:30:43;;;;;;;19.63;14.40;;;8.40;99.90;;;9.02;100.00;98336.34;5053985;28;20476;-79
2021/04/19 07:33:25;;;;;;;20.60;13.37;;;8.40;99.90;;;9.08;100.00;98337.47;5054690;28;20441;-79
2021/04/19 07:35:53;;;;;;;24.60;16.47;;;8.50;99.90;;;9.10;100.00;98338.09;5054827;28;20473;-79
2021/04/19 07:38:33;;;;;;;24.10;14.03;;;8.60;99.90;;;9.13;100.00;98334.38;5053940;28;20441;-79
2021/04/19 07:41:02;;;;;;;23.50;15.37;;;8.60;99.90;;;9.17;100.00;98333.03;5051761;28;20441;-79
2021/04/19 07:43:39;;;;;;;23.23;14.70;;;8.60;99.90;;;9.20;100.00;98328.28;5053473;28;20674;-78
2021/04/19 07:46:25;;;;;;;26.23;16.53;;;8.60;99.90;;;9.22;100.00;98323.72;5053863;28;20433;-79
2021/04/19 07:48:58;;;;;;;25.50;16.03;;;8.50;99.90;;;9.29;100.00;98327.25;5044479;28;20469;-80
2021/04/19 07:51:30;;;;;;;22.30;14.70;;;8.60;99.90;;;9.34;100.00;98318.91;5052867;28;20437;-79
2021/04/19 07:54:21;;;;;;;29.37;18.40;;;8.70;99.90;;;9.39;100.00;98327.84;5057612;28;20444;-80
2021/04/19 07:57:08;;;;;;;31.13;18.60;;;8.70;99.90;;;9.44;100.00;98328.13;5053189;28;20533;-79
2021/04/19 07:59:38;;;;;;;35.93;22.73;;;8.80;99.90;;;9.46;100.00;98330.59;5045516;28;20449;-79
2021/04/19 08:02:12;;;;;;;40.23;20.70;;;8.80;99.90;;;9.43;100.00;98328.31;5056805;28;20454;-79
2021/04/19 08:05:02;;;;;;;35.33;19.93;;;8.70;99.90;;;9.47;100.00;98330.44;5053192;28;20536;-79
2021/04/19 08:07:34;;;;;;;35.73;20.70;;;8.80;99.90;;;9.55;100.00;98334.75;5054354;28;20445;-78
2021/04/19 08:10:35;;;;;;;42.60;21.27;;;8.80;99.90;;;9.60;100.00;98335.88;5052854;28;20479;-79
2021/04/19 08:13:11;;;;;;;46.93;22.97;;;8.90;99.90;;;9.60;100.00;98341.09;5050257;28;20453;-79
2021/04/19 08:15:42;;;;;;;48.33;22.23;;;8.90;99.90;;;9.65;100.00;98339.78;5052943;28;20502;-80
2021/04/19 08:18:18;;;;;;;40.07;23.00;;;8.90;99.90;;;9.69;100.00;98336.63;5052601;28;20450;-80
2021/04/19 08:21:02;;;;;;;43.57;24.17;;;8.90;99.90;;;9.74;100.00;98338.72;5059816;28;20499;-80
2021/04/19 08:23:39;;;;;;;42.43;22.23;;;9.00;99.90;;;9.75;100.00;98343.78;5051279;28;20523;-79
2021/04/19 08:26:07;;;;;;;40.77;22.87;;;9.10;99.90;;;9.76;100.00;98339.34;5053922;28;20456;-80
2021/04/19 08:29:03;;;;;;;44.47;24.20;;;9.10;99.90;;;9.79;100.00;98341.63;5053202;28;20445;-80
2021/04/19 08:34:22;;;;;;;50.00;25.33;;;9.10;99.90;;;9.85;100.00;98330.47;5050962;28;20960;-80
2021/04/19 08:37:14;;;;;;;;;;;;;;;;;;;;;
2021/04/19 08:40:01;;;;;;;46.20;24.00;;;9.20;99.90;;;9.88;100.00;98332.75;5048663;28;20562;-79
2021/04/19 08:42:35;;;;;;;46.23;24.03;;;9.20;99.90;;;9.87;100.00;98336.31;5051658;28;20993;-80
2021/04/19 08:45:36;;;;;;;46.47;26.40;;;9.20;99.90;;;9.83;100.00;98330.66;5051000;28;20457;-80
2021/04/19 08:48:15;;;;;;;44.63;23.67;;;9.20;99.90;;;9.83;100.00;98335.06;5051122;28;20827;-80
2021/04/19 08:51:03;;;;;;;43.53;24.13;;;9.20;99.90;;;9.82;100.00;98346.50;5054672;28;20457;-79
2021/04/19 08:53:32;;;;;;;41.37;23.20;;;9.20;99.90;;;9.85;100.00;98343.53;5042851;28;20476;-79
2021/04/19 08:56:03;;;;;;;46.27;26.83;;;9.20;99.90;;;9.85;100.00;98343.53;5053840;28;20445;-79
2021/04/19 08:58:34;;;;;;;39.50;21.80;;;9.10;99.90;;;9.82;100.00;98344.69;5052309;28;20450;-79
2021/04/19 09:01:03;;;;;;;39.43;22.30;;;9.20;99.90;;;9.82;100.00;98346.50;5053963;28;20905;-79
2021/04/19 09:03:31;;;;;;;37.70;21.83;;;9.10;99.90;;;9.87;100.00;98352.81;5047513;28;20489;-80
2021/04/19 09:06:14;;;;;;;30.07;20.13;;;9.20;99.90;;;9.82;100.00;98360.34;5053942;28;20823;-79
2021/04/19 09:08:42;;;;;;;28.40;17.87;;;9.10;99.90;;;9.76;100.00;98352.41;5055157;28;20829;-79
2021/04/19 09:11:11;;;;;;;32.83;19.60;;;9.10;99.90;;;9.75;100.00;98362.06;5057254;28;20474;-79
2021/04/19 09:13:42;;;;;;;35.17;20.13;;;9.10;99.90;;;9.76;100.00;98360.22;5052484;28;20471;-79
2021/04/19 09:16:21;;;;;;;34.67;21.77;;;9.00;99.90;;;9.75;100.00;98363.84;5053303;28;20495;-79
2021/04/19 09:18:59;;;;;;;32.30;20.70;;;9.00;99.90;;;9.74;100.00;98372.66;5053495;28;20449;-79
2021/04/19 09:21:40;;;;;;;34.57;21.00;;;9.00;99.90;;;9.72;100.00;98372.03;5053867;28;20796;-79
2021/04/19 09:24:10;;;;;;;35.43;18.73;;;9.00;99.90;;;9.70;100.00;98368.78;5055104;28;20488;-79
2021/04/19 09:26:54;;;;;;;30.20;16.83;;;9.00;99.90;;;9.72;100.00;98369.44;5054395;28;20453;-79
2021/04/19 09:29:46;;;;;;;31.67;19.83;;;8.90;99.90;;;9.69;100.00;98369.75;5057419;28;20443;-80
2021/04/19 09:32:25;;;;;;;28.47;18.57;;;8.90;99.90;;;9.65;100.00;98368.50;5038657;28;20449;-80
2021/04/19 09:35:03;;;;;;;31.27;19.37;;;8.80;99.90;;;9.58;100.00;98374.38;5053674;28;20461;-79
2021/04/19 09:38:03;;;;;;;28.07;18.33;;;8.70;99.90;;;9.48;100.00;98370.38;5056382;28;20559;-79
2021/04/19 09:40:44;;;;;;;31.63;20.43;;;8.70;99.90;;;9.45;100.00;98376.75;4988497;28;20720;-79
2021/04/19 09:43:13;;;;;;;33.57;19.80;;;8.60;99.90;;;9.47;100.00;98366.16;4988683;28;21012;-79
2021/04/19 09:45:56;;;;;;;32.03;20.83;;;8.70;99.90;;;9.41;100.00;98372.84;5024072;28;20443;-79
2021/04/19 09:48:58;;;;;;;33.40;19.33;;;8.60;99.90;;;9.42;100.00;98368.44;5054443;28;20593;-79
2021/04/19 09:51:31;;;;;;;34.03;21.53;;;8.60;99.90;;;9.42;100.00;98373.66;5042719;28;20503;-80
2021/04/19 09:54:04;;;;;;;41.00;21.30;;;8.60;99.90;;;9.46;100.00;98374.97;5055186;28;20452;-79
2021/04/19 09:56:36;;;;;;;43.00;21.40;;;8.80;99.90;;;9.43;100.00;98370.09;5052378;28;20442;-78
2021/04/19 09:59:05;;;;;;;30.70;20.53;;;8.80;99.90;;;9.45;100.00;98368.91;5055744;28;20798;-78
2021/04/19 10:01:35;;;;;;;35.47;20.97;;;8.70;99.90;;;9.50;100.00;98364.00;5053074;28;20937;-78
2021/04/19 10:04:42;;;;;;;33.30;21.80;;;8.70;99.90;;;9.49;100.00;98362.38;5052134;28;20495;-78
2021/04/19 10:07:12;;;;;;;35.40;21.57;;;8.70;99.90;;;9.56;100.00;98365.94;5052417;28;20536;-77
2021/04/19 10:10:13;;;;;;;40.67;21.30;;;8.80;99.90;;;9.59;100.00;98360.34;5052632;28;20450;-78
2021/04/19 10:13:18;;;;;;;42.03;21.50;;;8.80;99.90;;;9.58;100.00;98361.34;5032427;28;20460;-79
2021/04/19 10:16:06;;;;;;;36.17;21.37;;;8.80;99.90;;;9.63;100.00;98354.78;5044867;28;20499;-80
2021/04/19 10:18:57;;;;;;;33.07;20.17;;;8.90;99.90;;;9.65;100.00;98363.28;5049883;28;20543;-79
2021/04/19 10:21:40;;;;;;;36.87;21.90;;;8.90;99.90;;;9.70;100.00;98360.94;5051133;28;20514;-79
2021/04/19 10:24:27;;;;;;;33.20;20.73;;;8.90;99.90;;;9.75;100.00;98364.69;5052909;28;20492;-79
2021/04/19 10:27:23;;;;;;;29.97;19.97;;;9.00;99.90;;;9.77;100.00;98361.88;5050898;28;20467;-80
2021/04/19 10:30:08;;;;;;;32.10;19.27;;;9.00;99.90;;;9.72;100.00;98358.97;5051364;28;20481;-80
2021/04/19 10:35:52;;;;;;;34.00;18.07;;;8.90;99.90;;;9.93;100.00;98361.75;5049598;28;20828;-80
2021/04/19 10:39:12;;;;;;;32.70;16.87;;;9.10;99.90;;;10.05;100.00;98348.09;5040116;28;20444;-80
2021/04/19 10:41:47;;;;;;;27.13;17.87;;;9.30;99.90;;;10.13;100.00;98356.88;5050648;28;20480;-79
2021/04/19 10:44:59;;;;;;;22.77;13.30;;;9.30;99.90;;;10.15;100.00;98349.69;5053277;28;20547;-80
2021/04/19 10:47:50;;;;;;;20.97;14.10;;;9.30;99.90;;;10.24;100.00;98351.25;5047589;28;20957;-80
2021/04/19 10:50:34;;;;;;;21.87;14.00;;;9.50;99.90;;;10.31;100.00;98350.34;5054505;28;20449;-80